sensor_id;sensor_type;location;lat;lon;timestamp;pressure;altitude;pressure_sealevel;temperature;humidity
59055;BME280;44845;51.444;7.460;2023-07-31T00:01:04;99273.13;;;16.40;97.62
59055;BME280;44845;51.444;7.460;2023-07-31T00:03:29;99252.72;;;16.42;97.26
59055;BME280;44845;51.444;7.460;2023-07-31T00:05:55;99274.78;;;16.42;97.41
59055;BME280;44845;51.444;7.460;2023-07-31T00:08:20;99272.59;;;16.31;97.67
59055;BME280;44845;51.444;7.460;2023-07-31T00:10:46;99265.13;;;16.41;97.69
59055;BME280;44845;51.444;7.460;2023-07-31T00:13:11;99255.56;;;16.37;97.94
59055;BME280;44845;51.444;7.460;2023-07-31T00:15:36;99256.31;;;16.41;97.86
59055;BME280;44845;51.444;7.460;2023-07-31T00:18:02;99256.44;;;16.38;97.81
59055;BME280;44845;51.444;7.460;2023-07-31T00:20:27;99260.66;;;16.42;98.03
59055;BME280;44845;51.444;7.460;2023-07-31T00:22:52;99266.03;;;16.40;97.79
59055;BME280;44845;51.444;7.460;2023-07-31T00:25:18;99262.38;;;16.22;98.33
59055;BME280;44845;51.444;7.460;2023-07-31T00:27:43;99253.91;;;16.35;98.21
59055;BME280;44845;51.444;7.460;2023-07-31T00:30:11;99243.34;;;16.35;98.30
59055;BME280;44845;51.444;7.460;2023-07-31T00:32:37;99251.34;;;16.33;98.38
59055;BME280;44845;51.444;7.460;2023-07-31T00:35:02;99250.28;;;16.37;98.41
59055;BME280;44845;51.444;7.460;2023-07-31T00:37:28;99252.13;;;16.35;97.93
59055;BME280;44845;51.444;7.460;2023-07-31T00:39:53;99244.16;;;16.37;98.25
59055;BME280;44845;51.444;7.460;2023-07-31T00:42:18;99249.19;;;16.43;98.33
59055;BME280;44845;51.444;7.460;2023-07-31T00:44:44;99256.56;;;16.35;98.26
59055;BME280;44845;51.444;7.460;2023-07-31T00:47:09;99253.00;;;16.36;98.13
59055;BME280;44845;51.444;7.460;2023-07-31T00:49:34;99251.28;;;16.35;98.13
59055;BME280;44845;51.444;7.460;2023-07-31T00:52:00;99250.34;;;16.36;98.08
59055;BME280;44845;51.444;7.460;2023-07-31T00:54:27;99249.69;;;16.30;98.46
59055;BME280;44845;51.444;7.460;2023-07-31T00:56:54;99242.53;;;16.32;98.15
59055;BME280;44845;51.444;7.460;2023-07-31T00:59:19;99248.34;;;16.20;98.91
59055;BME280;44845;51.444;7.460;2023-07-31T01:01:45;99248.22;;;16.23;99.11
59055;BME280;44845;51.444;7.460;2023-07-31T01:04:11;99242.81;;;16.26;98.96
59055;BME280;44845;51.444;7.460;2023-07-31T01:06:43;99242.94;;;16.23;98.43
59055;BME280;44845;51.444;7.460;2023-07-31T01:09:47;99233.94;;;16.27;98.79
59055;BME280;44845;51.444;7.460;2023-07-31T01:12:15;99236.66;;;16.26;98.60
59055;BME280;44845;51.444;7.460;2023-07-31T01:15:03;99231.44;;;16.24;98.67
59055;BME280;44845;51.444;7.460;2023-07-31T01:17:28;99244.50;;;16.27;98.49
59055;BME280;44845;51.444;7.460;2023-07-31T01:20:01;99235.00;;;16.23;99.01
59055;BME280;44845;51.444;7.460;2023-07-31T01:28:27;99242.63;;;16.31;98.18
59055;BME280;44845;51.444;7.460;2023-07-31T01:30:55;99235.84;;;16.24;97.91
59055;BME280;44845;51.444;7.460;2023-07-31T01:33:22;99236.47;;;16.30;97.88
59055;BME280;44845;51.444;7.460;2023-07-31T01:35:48;99234.09;;;16.24;97.81
59055;BME280;44845;51.444;7.460;2023-07-31T01:38:14;99245.50;;;16.25;98.22
59055;BME280;44845;51.444;7.460;2023-07-31T01:40:42;99246.25;;;16.28;98.10
59055;BME280;44845;51.444;7.460;2023-07-31T01:43:08;99238.44;;;16.25;97.75
59055;BME280;44845;51.444;7.460;2023-07-31T01:45:33;99252.84;;;16.18;97.45
59055;BME280;44845;51.444;7.460;2023-07-31T01:47:59;99243.03;;;16.20;98.25
59055;BME280;44845;51.444;7.460;2023-07-31T01:50:24;99237.63;;;16.23;97.98
59055;BME280;44845;51.444;7.460;2023-07-31T01:52:49;99236.97;;;16.18;97.86
59055;BME280;44845;51.444;7.460;2023-07-31T01:55:15;99240.78;;;16.10;98.53
59055;BME280;44845;51.444;7.460;2023-07-31T01:57:40;99225.47;;;16.19;98.03
59055;BME280;44845;51.444;7.460;2023-07-31T02:00:06;99223.53;;;16.23;97.56
59055;BME280;44845;51.444;7.460;2023-07-31T02:02:31;99234.31;;;16.18;97.31
59055;BME280;44845;51.444;7.460;2023-07-31T02:04:57;99230.00;;;16.15;97.67
59055;BME280;44845;51.444;7.460;2023-07-31T02:07:22;99234.88;;;16.26;97.17
59055;BME280;44845;51.444;7.460;2023-07-31T02:09:47;99227.19;;;16.20;97.55
59055;BME280;44845;51.444;7.460;2023-07-31T02:12:13;99234.31;;;16.18;97.66
59055;BME280;44845;51.444;7.460;2023-07-31T02:14:40;99222.88;;;16.17;97.27
59055;BME280;44845;51.444;7.460;2023-07-31T02:17:05;99222.75;;;16.20;97.44
59055;BME280;44845;51.444;7.460;2023-07-31T02:19:31;99225.50;;;16.17;97.18
59055;BME280;44845;51.444;7.460;2023-07-31T02:21:56;99221.16;;;16.16;96.99
59055;BME280;44845;51.444;7.460;2023-07-31T02:24:21;99215.59;;;16.23;96.73
59055;BME280;44845;51.444;7.460;2023-07-31T02:26:47;99216.47;;;16.23;96.75
59055;BME280;44845;51.444;7.460;2023-07-31T02:29:12;99213.91;;;16.21;97.02
59055;BME280;44845;51.444;7.460;2023-07-31T02:31:38;99216.59;;;16.20;96.61
59055;BME280;44845;51.444;7.460;2023-07-31T02:34:03;99214.03;;;16.18;96.65
59055;BME280;44845;51.444;7.460;2023-07-31T02:36:28;99218.31;;;16.21;96.56
59055;BME280;44845;51.444;7.460;2023-07-31T02:38:54;99211.19;;;16.23;96.54
59055;BME280;44845;51.444;7.460;2023-07-31T02:41:19;99213.13;;;16.19;96.16
59055;BME280;44845;51.444;7.460;2023-07-31T02:43:44;99215.59;;;16.23;95.67
59055;BME280;44845;51.444;7.460;2023-07-31T02:46:10;99210.66;;;16.15;95.98
59055;BME280;44845;51.444;7.460;2023-07-31T02:48:35;99219.44;;;16.15;96.28
59055;BME280;44845;51.444;7.460;2023-07-31T02:51:00;99207.88;;;16.18;96.10
59055;BME280;44845;51.444;7.460;2023-07-31T02:53:26;99216.13;;;16.10;96.59
59055;BME280;44845;51.444;7.460;2023-07-31T02:55:51;99209.78;;;16.14;96.30
59055;BME280;44845;51.444;7.460;2023-07-31T02:58:16;99201.97;;;16.11;95.94
59055;BME280;44845;51.444;7.460;2023-07-31T03:00:43;99208.25;;;16.08;96.18
59055;BME280;44845;51.444;7.460;2023-07-31T03:03:08;99202.84;;;16.12;95.89
59055;BME280;44845;51.444;7.460;2023-07-31T03:05:33;99209.00;;;16.12;96.11
59055;BME280;44845;51.444;7.460;2023-07-31T03:07:59;99204.44;;;16.16;95.58
59055;BME280;44845;51.444;7.460;2023-07-31T03:10:24;99193.84;;;16.16;95.85
59055;BME280;44845;51.444;7.460;2023-07-31T03:12:49;99201.91;;;16.13;95.54
59055;BME280;44845;51.444;7.460;2023-07-31T03:15:15;99196.69;;;16.11;95.27
59055;BME280;44845;51.444;7.460;2023-07-31T03:17:40;99202.09;;;16.08;95.76
59055;BME280;44845;51.444;7.460;2023-07-31T03:20:06;99189.34;;;15.95;96.13
59055;BME280;44845;51.444;7.460;2023-07-31T03:22:31;99192.75;;;15.99;95.30
59055;BME280;44845;51.444;7.460;2023-07-31T03:24:57;99188.31;;;15.99;96.06
59055;BME280;44845;51.444;7.460;2023-07-31T03:27:22;99188.94;;;16.06;95.94
59055;BME280;44845;51.444;7.460;2023-07-31T03:29:47;99181.81;;;16.08;95.50
59055;BME280;44845;51.444;7.460;2023-07-31T03:32:15;99189.03;;;16.03;95.52
59055;BME280;44845;51.444;7.460;2023-07-31T03:34:40;99188.16;;;16.03;95.74
59055;BME280;44845;51.444;7.460;2023-07-31T03:37:05;99181.94;;;16.05;95.39
59055;BME280;44845;51.444;7.460;2023-07-31T03:39:31;99190.81;;;16.04;95.43
59055;BME280;44845;51.444;7.460;2023-07-31T03:41:56;99186.09;;;16.11;95.31
59055;BME280;44845;51.444;7.460;2023-07-31T03:44:21;99180.81;;;16.11;95.21
59055;BME280;44845;51.444;7.460;2023-07-31T03:46:47;99181.09;;;16.03;95.56
59055;BME280;44845;51.444;7.460;2023-07-31T03:49:12;99191.66;;;16.05;95.14
59055;BME280;44845;51.444;7.460;2023-07-31T03:51:38;99187.44;;;15.99;95.78
59055;BME280;44845;51.444;7.460;2023-07-31T03:54:03;99184.00;;;15.97;95.87
59055;BME280;44845;51.444;7.460;2023-07-31T03:56:28;99178.56;;;16.00;95.45
59055;BME280;44845;51.444;7.460;2023-07-31T03:58:54;99183.88;;;16.00;95.39
59055;BME280;44845;51.444;7.460;2023-07-31T04:01:19;99183.66;;;16.06;95.62
59055;BME280;44845;51.444;7.460;2023-07-31T04:03:45;99182.75;;;16.07;95.66
59055;BME280;44845;51.444;7.460;2023-07-31T04:06:10;99176.63;;;16.05;94.95
59055;BME280;44845;51.444;7.460;2023-07-31T04:08:36;99187.34;;;16.02;95.36
59055;BME280;44845;51.444;7.460;2023-07-31T04:11:01;99177.94;;;15.95;95.53
59055;BME280;44845;51.444;7.460;2023-07-31T04:13:26;99178.66;;;15.98;95.02
59055;BME280;44845;51.444;7.460;2023-07-31T04:15:54;99172.28;;;16.04;95.37
59055;BME280;44845;51.444;7.460;2023-07-31T04:18:20;99178.25;;;16.09;95.22
59055;BME280;44845;51.444;7.460;2023-07-31T04:20:45;99176.44;;;16.10;94.72
59055;BME280;44845;51.444;7.460;2023-07-31T04:23:11;99160.41;;;16.15;95.21
59055;BME280;44845;51.444;7.460;2023-07-31T04:25:36;99174.94;;;16.04;94.95
59055;BME280;44845;51.444;7.460;2023-07-31T04:28:01;99163.47;;;16.04;95.40
59055;BME280;44845;51.444;7.460;2023-07-31T04:30:27;99165.75;;;16.13;95.58
59055;BME280;44845;51.444;7.460;2023-07-31T04:32:52;99163.84;;;16.17;95.31
59055;BME280;44845;51.444;7.460;2023-07-31T04:35:17;99176.13;;;16.18;95.54
59055;BME280;44845;51.444;7.460;2023-07-31T04:37:43;99168.38;;;16.13;95.46
59055;BME280;44845;51.444;7.460;2023-07-31T04:40:10;99168.16;;;16.19;95.90
59055;BME280;44845;51.444;7.460;2023-07-31T04:42:35;99162.22;;;16.13;95.87
59055;BME280;44845;51.444;7.460;2023-07-31T04:45:00;99178.97;;;16.13;95.61
59055;BME280;44845;51.444;7.460;2023-07-31T04:47:26;99171.09;;;16.12;95.67
59055;BME280;44845;51.444;7.460;2023-07-31T04:49:51;99170.72;;;16.21;95.73
59055;BME280;44845;51.444;7.460;2023-07-31T04:52:16;99166.00;;;16.28;95.46
59055;BME280;44845;51.444;7.460;2023-07-31T04:54:42;99164.22;;;16.28;95.66
59055;BME280;44845;51.444;7.460;2023-07-31T04:57:07;99162.38;;;16.30;95.79
59055;BME280;44845;51.444;7.460;2023-07-31T04:59:33;99154.19;;;16.37;95.42
59055;BME280;44845;51.444;7.460;2023-07-31T05:01:58;99154.53;;;16.29;95.61
59055;BME280;44845;51.444;7.460;2023-07-31T05:04:23;99152.78;;;16.28;95.95
59055;BME280;44845;51.444;7.460;2023-07-31T05:06:49;99156.19;;;16.31;96.15
59055;BME280;44845;51.444;7.460;2023-07-31T05:09:14;99153.38;;;16.35;96.43
59055;BME280;44845;51.444;7.460;2023-07-31T05:11:39;99144.53;;;16.36;96.01
59055;BME280;44845;51.444;7.460;2023-07-31T05:14:05;99137.50;;;16.35;96.57
59055;BME280;44845;51.444;7.460;2023-07-31T05:16:31;99139.34;;;16.32;96.37
59055;BME280;44845;51.444;7.460;2023-07-31T05:18:56;99148.91;;;16.37;96.50
59055;BME280;44845;51.444;7.460;2023-07-31T05:21:22;99132.75;;;16.43;96.28
59055;BME280;44845;51.444;7.460;2023-07-31T05:23:47;99130.97;;;16.43;95.90
59055;BME280;44845;51.444;7.460;2023-07-31T05:26:13;99128.53;;;16.39;96.60
59055;BME280;44845;51.444;7.460;2023-07-31T05:28:39;99118.72;;;16.41;96.21
59055;BME280;44845;51.444;7.460;2023-07-31T05:31:04;99123.94;;;16.42;96.58
59055;BME280;44845;51.444;7.460;2023-07-31T05:33:30;99119.19;;;16.51;96.32
59055;BME280;44845;51.444;7.460;2023-07-31T05:35:56;99118.31;;;16.50;96.46
59055;BME280;44845;51.444;7.460;2023-07-31T05:38:21;99117.19;;;16.56;96.60
59055;BME280;44845;51.444;7.460;2023-07-31T05:40:47;99122.31;;;16.59;96.43
59055;BME280;44845;51.444;7.460;2023-07-31T05:43:12;99124.78;;;16.64;96.20
59055;BME280;44845;51.444;7.460;2023-07-31T05:45:38;99121.28;;;16.63;96.20
59055;BME280;44845;51.444;7.460;2023-07-31T05:48:03;99122.00;;;16.67;96.09
59055;BME280;44845;51.444;7.460;2023-07-31T05:50:30;99117.66;;;16.66;96.70
59055;BME280;44845;51.444;7.460;2023-07-31T05:52:55;99110.50;;;16.68;96.18
59055;BME280;44845;51.444;7.460;2023-07-31T05:55:20;99097.25;;;16.68;96.38
59055;BME280;44845;51.444;7.460;2023-07-31T05:57:46;99098.16;;;16.67;96.34
59055;BME280;44845;51.444;7.460;2023-07-31T06:00:12;99102.41;;;16.71;96.00
59055;BME280;44845;51.444;7.460;2023-07-31T06:02:38;99096.31;;;16.69;96.46
59055;BME280;44845;51.444;7.460;2023-07-31T06:05:04;99089.31;;;16.68;96.66
59055;BME280;44845;51.444;7.460;2023-07-31T06:07:33;99095.53;;;16.67;96.29
59055;BME280;44845;51.444;7.460;2023-07-31T06:09:59;99086.13;;;16.60;96.68
59055;BME280;44845;51.444;7.460;2023-07-31T06:12:30;99092.31;;;16.60;96.34
59055;BME280;44845;51.444;7.460;2023-07-31T06:14:56;99088.00;;;16.58;95.61
59055;BME280;44845;51.444;7.460;2023-07-31T06:17:21;99090.56;;;16.59;96.09
59055;BME280;44845;51.444;7.460;2023-07-31T06:19:47;99086.09;;;16.61;96.63
59055;BME280;44845;51.444;7.460;2023-07-31T06:22:12;99084.28;;;16.62;96.23
59055;BME280;44845;51.444;7.460;2023-07-31T06:24:37;99079.72;;;16.65;96.07
59055;BME280;44845;51.444;7.460;2023-07-31T06:27:03;99085.88;;;16.66;96.16
59055;BME280;44845;51.444;7.460;2023-07-31T06:29:29;99075.34;;;16.64;96.61
59055;BME280;44845;51.444;7.460;2023-07-31T06:31:55;99070.84;;;16.66;96.27
59055;BME280;44845;51.444;7.460;2023-07-31T06:34:20;99081.28;;;16.70;96.24
59055;BME280;44845;51.444;7.460;2023-07-31T06:36:45;99071.91;;;16.62;96.64
59055;BME280;44845;51.444;7.460;2023-07-31T06:39:11;99078.78;;;16.66;96.65
59055;BME280;44845;51.444;7.460;2023-07-31T06:41:36;99075.44;;;16.63;96.38
59055;BME280;44845;51.444;7.460;2023-07-31T06:44:01;99070.91;;;16.65;95.70
59055;BME280;44845;51.444;7.460;2023-07-31T06:46:27;99080.22;;;16.74;95.99
59055;BME280;44845;51.444;7.460;2023-07-31T06:48:52;99068.13;;;16.68;96.31
59055;BME280;44845;51.444;7.460;2023-07-31T06:51:18;99081.16;;;16.73;96.20
59055;BME280;44845;51.444;7.460;2023-07-31T06:53:43;99068.69;;;16.75;96.36
59055;BME280;44845;51.444;7.460;2023-07-31T06:56:10;99071.91;;;16.82;96.08
59055;BME280;44845;51.444;7.460;2023-07-31T06:58:35;99078.66;;;16.89;96.19
59055;BME280;44845;51.444;7.460;2023-07-31T07:01:01;99074.13;;;16.91;96.18
59055;BME280;44845;51.444;7.460;2023-07-31T07:03:27;99076.94;;;16.88;96.26
59055;BME280;44845;51.444;7.460;2023-07-31T07:05:52;99075.34;;;16.84;96.75
59055;BME280;44845;51.444;7.460;2023-07-31T07:08:18;99075.13;;;16.69;96.82
59055;BME280;44845;51.444;7.460;2023-07-31T07:10:43;99070.66;;;16.71;95.91
59055;BME280;44845;51.444;7.460;2023-07-31T07:13:08;99073.13;;;16.74;96.88
59055;BME280;44845;51.444;7.460;2023-07-31T07:15:34;99069.28;;;16.82;96.59
59055;BME280;44845;51.444;7.460;2023-07-31T07:18:00;99066.97;;;16.74;96.28
59055;BME280;44845;51.444;7.460;2023-07-31T07:20:25;99078.16;;;16.81;96.76
59055;BME280;44845;51.444;7.460;2023-07-31T07:22:51;99068.69;;;16.75;96.01
59055;BME280;44845;51.444;7.460;2023-07-31T07:25:16;99079.59;;;16.69;96.01
59055;BME280;44845;51.444;7.460;2023-07-31T07:27:41;99076.72;;;16.73;96.21
59055;BME280;44845;51.444;7.460;2023-07-31T07:30:07;99080.28;;;16.72;96.52
59055;BME280;44845;51.444;7.460;2023-07-31T07:32:32;99078.72;;;16.68;96.99
59055;BME280;44845;51.444;7.460;2023-07-31T07:34:58;99080.22;;;16.74;96.79
59055;BME280;44845;51.444;7.460;2023-07-31T07:37:23;99078.28;;;16.77;96.34
59055;BME280;44845;51.444;7.460;2023-07-31T07:39:48;99078.28;;;16.77;96.80
59055;BME280;44845;51.444;7.460;2023-07-31T07:42:14;99072.69;;;16.84;96.91
59055;BME280;44845;51.444;7.460;2023-07-31T07:44:39;99069.13;;;16.85;96.90
59055;BME280;44845;51.444;7.460;2023-07-31T07:47:05;99077.22;;;16.82;97.15
59055;BME280;44845;51.444;7.460;2023-07-31T07:49:34;99062.09;;;16.84;97.08
59055;BME280;44845;51.444;7.460;2023-07-31T07:52:00;99072.78;;;16.82;97.26
59055;BME280;44845;51.444;7.460;2023-07-31T07:54:26;99062.28;;;16.81;97.05
59055;BME280;44845;51.444;7.460;2023-07-31T07:56:51;99053.53;;;16.79;96.97
59055;BME280;44845;51.444;7.460;2023-07-31T07:59:16;99048.69;;;16.88;97.53
59055;BME280;44845;51.444;7.460;2023-07-31T08:01:42;99055.47;;;16.94;97.23
59055;BME280;44845;51.444;7.460;2023-07-31T08:04:07;99056.69;;;16.87;97.11
59055;BME280;44845;51.444;7.460;2023-07-31T08:06:32;99066.06;;;16.94;96.78
59055;BME280;44845;51.444;7.460;2023-07-31T08:08:58;99070.25;;;16.98;97.51
59055;BME280;44845;51.444;7.460;2023-07-31T08:11:24;99062.69;;;16.91;97.33
59055;BME280;44845;51.444;7.460;2023-07-31T08:13:49;99054.53;;;16.95;97.52
59055;BME280;44845;51.444;7.460;2023-07-31T08:16:15;99051.53;;;17.03;97.56
59055;BME280;44845;51.444;7.460;2023-07-31T08:18:41;99046.38;;;17.00;97.34
59055;BME280;44845;51.444;7.460;2023-07-31T08:21:08;99042.84;;;16.99;98.08
59055;BME280;44845;51.444;7.460;2023-07-31T08:23:33;99049.25;;;16.95;97.65
59055;BME280;44845;51.444;7.460;2023-07-31T08:25:58;99036.91;;;16.94;97.63
59055;BME280;44845;51.444;7.460;2023-07-31T08:28:24;99040.84;;;17.05;97.35
59055;BME280;44845;51.444;7.460;2023-07-31T08:30:51;99038.78;;;16.92;97.86
59055;BME280;44845;51.444;7.460;2023-07-31T08:33:17;99022.59;;;16.98;98.00
59055;BME280;44845;51.444;7.460;2023-07-31T08:35:42;99040.28;;;16.98;97.68
59055;BME280;44845;51.444;7.460;2023-07-31T08:38:07;99035.69;;;17.02;97.97
59055;BME280;44845;51.444;7.460;2023-07-31T08:40:36;99034.31;;;17.12;98.18
59055;BME280;44845;51.444;7.460;2023-07-31T08:43:02;99034.03;;;17.18;97.52
59055;BME280;44845;51.444;7.460;2023-07-31T08:45:28;99037.50;;;17.20;97.72
59055;BME280;44845;51.444;7.460;2023-07-31T08:47:55;99030.91;;;17.10;97.77
59055;BME280;44845;51.444;7.460;2023-07-31T08:50:21;99035.91;;;17.16;97.68
59055;BME280;44845;51.444;7.460;2023-07-31T08:52:48;99029.69;;;17.17;97.51
59055;BME280;44845;51.444;7.460;2023-07-31T08:55:13;99023.16;;;17.25;97.74
59055;BME280;44845;51.444;7.460;2023-07-31T08:57:39;99029.88;;;17.32;97.89
59055;BME280;44845;51.444;7.460;2023-07-31T09:00:06;99037.69;;;17.35;97.69
59055;BME280;44845;51.444;7.460;2023-07-31T09:02:37;99042.03;;;17.36;96.99
59055;BME280;44845;51.444;7.460;2023-07-31T09:05:06;99031.97;;;17.43;97.17
59055;BME280;44845;51.444;7.460;2023-07-31T09:07:34;99034.63;;;17.43;97.34
59055;BME280;44845;51.444;7.460;2023-07-31T09:09:59;99034.72;;;17.41;95.96
59055;BME280;44845;51.444;7.460;2023-07-31T09:12:25;99033.41;;;17.32;96.66
59055;BME280;44845;51.444;7.460;2023-07-31T09:14:51;99031.59;;;17.33;97.15
59055;BME280;44845;51.444;7.460;2023-07-31T09:17:35;99028.69;;;17.38;96.61
59055;BME280;44845;51.444;7.460;2023-07-31T09:20:18;99019.44;;;17.47;97.16
59055;BME280;44845;51.444;7.460;2023-07-31T09:22:44;99025.63;;;17.47;96.75
59055;BME280;44845;51.444;7.460;2023-07-31T09:25:25;99024.53;;;17.51;95.99
59055;BME280;44845;51.444;7.460;2023-07-31T09:27:58;99036.13;;;17.49;95.50
59055;BME280;44845;51.444;7.460;2023-07-31T09:30:25;99027.31;;;17.48;96.14
59055;BME280;44845;51.444;7.460;2023-07-31T09:32:51;99022.09;;;17.47;96.12
59055;BME280;44845;51.444;7.460;2023-07-31T09:35:38;99029.28;;;17.44;96.19
59055;BME280;44845;51.444;7.460;2023-07-31T09:38:07;99027.69;;;17.40;96.77
59055;BME280;44845;51.444;7.460;2023-07-31T09:40:35;99033.84;;;17.41;96.62
59055;BME280;44845;51.444;7.460;2023-07-31T09:43:09;99018.69;;;17.44;95.27
59055;BME280;44845;51.444;7.460;2023-07-31T09:45:37;99020.56;;;17.42;95.80
59055;BME280;44845;51.444;7.460;2023-07-31T09:48:07;99009.63;;;17.49;96.18
59055;BME280;44845;51.444;7.460;2023-07-31T09:50:36;99021.00;;;17.51;96.04
59055;BME280;44845;51.444;7.460;2023-07-31T09:53:02;99001.03;;;17.43;96.32
59055;BME280;44845;51.444;7.460;2023-07-31T09:55:29;99003.31;;;17.51;96.01
59055;BME280;44845;51.444;7.460;2023-07-31T09:57:55;98992.34;;;17.59;96.06
59055;BME280;44845;51.444;7.460;2023-07-31T10:00:23;99004.47;;;17.63;96.76
59055;BME280;44845;51.444;7.460;2023-07-31T10:02:50;99004.31;;;17.49;96.36
59055;BME280;44845;51.444;7.460;2023-07-31T10:05:16;99006.44;;;17.60;96.44
59055;BME280;44845;51.444;7.460;2023-07-31T10:07:45;98993.97;;;17.62;96.74
59055;BME280;44845;51.444;7.460;2023-07-31T10:10:15;98998.88;;;17.52;96.01
59055;BME280;44845;51.444;7.460;2023-07-31T10:12:41;98994.44;;;17.52;97.03
59055;BME280;44845;51.444;7.460;2023-07-31T10:15:09;99000.09;;;17.62;96.96
59055;BME280;44845;51.444;7.460;2023-07-31T10:17:35;98995.59;;;17.64;96.77
59055;BME280;44845;51.444;7.460;2023-07-31T10:20:02;98998.16;;;17.66;95.74
59055;BME280;44845;51.444;7.460;2023-07-31T10:22:30;98998.06;;;17.67;96.20
59055;BME280;44845;51.444;7.460;2023-07-31T10:24:57;98994.59;;;17.67;96.01
59055;BME280;44845;51.444;7.460;2023-07-31T10:27:23;98999.47;;;17.75;96.33
59055;BME280;44845;51.444;7.460;2023-07-31T10:29:49;98987.09;;;17.58;97.02
59055;BME280;44845;51.444;7.460;2023-07-31T10:32:17;98995.75;;;17.43;97.12
59055;BME280;44845;51.444;7.460;2023-07-31T10:34:42;98994.81;;;17.62;97.93
59055;BME280;44845;51.444;7.460;2023-07-31T10:37:24;98992.22;;;17.78;98.33
59055;BME280;44845;51.444;7.460;2023-07-31T10:40:03;98991.47;;;17.76;98.00
59055;BME280;44845;51.444;7.460;2023-07-31T10:45:13;98994.56;;;17.85;97.07
59055;BME280;44845;51.444;7.460;2023-07-31T10:47:43;98999.03;;;17.84;96.98
59055;BME280;44845;51.444;7.460;2023-07-31T10:50:15;98995.75;;;17.79;95.22
59055;BME280;44845;51.444;7.460;2023-07-31T10:52:47;98994.56;;;17.85;96.60
59055;BME280;44845;51.444;7.460;2023-07-31T10:55:24;98998.22;;;17.82;96.81
59055;BME280;44845;51.444;7.460;2023-07-31T10:57:51;98992.97;;;17.64;96.81
59055;BME280;44845;51.444;7.460;2023-07-31T11:00:18;98995.44;;;17.67;96.96
59055;BME280;44845;51.444;7.460;2023-07-31T11:03:17;98999.28;;;17.62;97.01
59055;BME280;44845;51.444;7.460;2023-07-31T11:06:01;98990.38;;;17.63;96.02
59055;BME280;44845;51.444;7.460;2023-07-31T11:08:31;98995.28;;;17.53;97.46
59055;BME280;44845;51.444;7.460;2023-07-31T11:13:33;98991.84;;;17.51;97.59
59055;BME280;44845;51.444;7.460;2023-07-31T11:16:00;98981.25;;;17.51;97.97
59055;BME280;44845;51.444;7.460;2023-07-31T11:18:26;98987.75;;;17.45;97.67
59055;BME280;44845;51.444;7.460;2023-07-31T11:20:52;98995.75;;;17.43;97.52
59055;BME280;44845;51.444;7.460;2023-07-31T11:23:19;98995.59;;;17.47;97.42
59055;BME280;44845;51.444;7.460;2023-07-31T11:25:45;98993.88;;;17.45;97.19
59055;BME280;44845;51.444;7.460;2023-07-31T11:28:14;98994.72;;;17.46;97.67
59055;BME280;44845;51.444;7.460;2023-07-31T11:30:41;98996.91;;;17.38;97.74
59055;BME280;44845;51.444;7.460;2023-07-31T11:33:08;98997.22;;;17.31;98.75
59055;BME280;44845;51.444;7.460;2023-07-31T11:35:35;98990.78;;;17.37;98.38
59055;BME280;44845;51.444;7.460;2023-07-31T11:38:01;98986.88;;;17.44;98.23
59055;BME280;44845;51.444;7.460;2023-07-31T11:40:27;98974.41;;;17.47;98.24
59055;BME280;44845;51.444;7.460;2023-07-31T11:43:04;98977.81;;;17.49;99.18
59055;BME280;44845;51.444;7.460;2023-07-31T11:45:30;98977.97;;;17.45;98.89
59055;BME280;44845;51.444;7.460;2023-07-31T11:47:56;98965.63;;;17.62;98.70
59055;BME280;44845;51.444;7.460;2023-07-31T11:50:22;98975.31;;;17.63;98.13
59055;BME280;44845;51.444;7.460;2023-07-31T11:52:52;98974.06;;;17.71;97.73
59055;BME280;44845;51.444;7.460;2023-07-31T11:55:19;98967.84;;;17.72;98.08
59055;BME280;44845;51.444;7.460;2023-07-31T11:57:45;98971.41;;;17.71;97.47
59055;BME280;44845;51.444;7.460;2023-07-31T12:00:12;98966.81;;;17.74;97.61
59055;BME280;44845;51.444;7.460;2023-07-31T12:02:39;98969.53;;;17.73;97.44
59055;BME280;44845;51.444;7.460;2023-07-31T12:05:11;98968.47;;;17.77;97.57
59055;BME280;44845;51.444;7.460;2023-07-31T12:07:49;98959.66;;;17.76;97.55
59055;BME280;44845;51.444;7.460;2023-07-31T12:10:25;98968.13;;;17.83;97.66
59055;BME280;44845;51.444;7.460;2023-07-31T12:12:58;98968.28;;;17.80;98.06
59055;BME280;44845;51.444;7.460;2023-07-31T12:15:45;98969.22;;;17.79;98.83
59055;BME280;44845;51.444;7.460;2023-07-31T12:18:15;98961.56;;;17.90;98.27
59055;BME280;44845;51.444;7.460;2023-07-31T12:20:42;98960.22;;;17.99;98.22
59055;BME280;44845;51.444;7.460;2023-07-31T12:23:16;98959.81;;;18.07;98.71
59055;BME280;44845;51.444;7.460;2023-07-31T12:25:42;98959.41;;;18.15;98.53
59055;BME280;44845;51.444;7.460;2023-07-31T12:28:07;98954.63;;;18.22;97.15
59055;BME280;44845;51.444;7.460;2023-07-31T12:30:38;98950.72;;;18.29;98.39
59055;BME280;44845;51.444;7.460;2023-07-31T12:33:05;98947.13;;;18.30;98.81
59055;BME280;44845;51.444;7.460;2023-07-31T12:35:35;98950.28;;;18.37;97.58
59055;BME280;44845;51.444;7.460;2023-07-31T12:38:01;98957.41;;;18.37;97.18
59055;BME280;44845;51.444;7.460;2023-07-31T12:40:27;98945.59;;;18.26;97.24
59055;BME280;44845;51.444;7.460;2023-07-31T12:42:52;98948.25;;;18.26;96.40
59055;BME280;44845;51.444;7.460;2023-07-31T12:45:18;98954.47;;;18.25;96.51
59055;BME280;44845;51.444;7.460;2023-07-31T12:47:44;98946.81;;;18.19;96.49
59055;BME280;44845;51.444;7.460;2023-07-31T12:50:09;98939.97;;;18.15;97.29
59055;BME280;44845;51.444;7.460;2023-07-31T12:52:34;98948.28;;;18.08;97.41
59055;BME280;44845;51.444;7.460;2023-07-31T12:55:00;98943.72;;;18.10;97.42
59055;BME280;44845;51.444;7.460;2023-07-31T12:57:25;98943.28;;;18.02;98.01
59055;BME280;44845;51.444;7.460;2023-07-31T12:59:50;98947.69;;;17.85;98.22
59055;BME280;44845;51.444;7.460;2023-07-31T13:02:16;98948.16;;;17.94;98.41
59055;BME280;44845;51.444;7.460;2023-07-31T13:04:41;98935.81;;;17.93;97.89
59055;BME280;44845;51.444;7.460;2023-07-31T13:07:06;98945.81;;;17.87;97.81
59055;BME280;44845;51.444;7.460;2023-07-31T13:09:32;98942.06;;;17.92;98.11